createdAt,value
2022-08-26T00:01:56.862Z,26.26
2022-08-26T00:04:25.636Z,26.01
2022-08-26T00:06:55.601Z,26.62
2022-08-26T00:09:24.625Z,26.48
2022-08-26T00:11:52.521Z,26.52
2022-08-26T00:14:19.514Z,26.52
2022-08-26T00:16:47.262Z,27.36
2022-08-26T00:19:18.383Z,27.27
2022-08-26T00:21:46.239Z,26.88
2022-08-26T00:24:15.903Z,26.78
2022-08-26T00:26:42.693Z,26.60
2022-08-26T00:29:10.086Z,27.33
2022-08-26T00:31:37.918Z,26.15
2022-08-26T00:34:06.122Z,25.41
2022-08-26T00:36:32.941Z,25.25
2022-08-26T00:38:59.767Z,26.75
2022-08-26T00:41:28.994Z,27.83
2022-08-26T00:43:56.122Z,23.95
2022-08-26T00:46:31.777Z,25.30
2022-08-26T00:49:22.106Z,26.23
2022-08-26T00:51:54.671Z,26.39
2022-08-26T00:54:26.949Z,24.99
2022-08-26T00:57:08.754Z,25.40
2022-08-26T00:59:46.515Z,26.32
2022-08-26T01:02:20.817Z,26.34
2022-08-26T01:04:55.911Z,26.45
2022-08-26T01:07:26.203Z,25.55
2022-08-26T01:09:55.753Z,24.58
2022-08-26T01:12:25.075Z,25.44
2022-08-26T01:14:52.006Z,24.72
2022-08-26T01:17:19.090Z,25.26
2022-08-26T01:19:50.165Z,24.94
2022-08-26T01:22:26.642Z,25.60
2022-08-26T01:24:59.085Z,26.26
2022-08-26T01:27:32.539Z,26.12
2022-08-26T01:30:01.681Z,25.82
2022-08-26T01:32:31.826Z,25.23
2022-08-26T01:34:59.355Z,25.40
2022-08-26T01:37:35.366Z,25.91
2022-08-26T01:40:07.792Z,25.25
2022-08-26T01:42:34.844Z,25.66
2022-08-26T01:45:15.253Z,24.92
2022-08-26T01:47:43.301Z,25.69
2022-08-26T01:50:15.744Z,25.22
2022-08-26T01:52:56.113Z,24.00
2022-08-26T01:55:32.068Z,25.02
2022-08-26T01:58:05.242Z,24.45
2022-08-26T02:00:34.381Z,24.28
2022-08-26T02:03:18.148Z,25.18
2022-08-26T02:05:59.157Z,25.53
2022-08-26T02:08:40.901Z,25.06
2022-08-26T02:11:08.618Z,23.61
2022-08-26T02:13:41.089Z,23.64
2022-08-26T02:16:09.140Z,24.27
2022-08-26T02:18:38.717Z,24.87
2022-08-26T02:21:06.938Z,25.36
2022-08-26T02:23:34.089Z,25.63
2022-08-26T02:26:01.090Z,25.04
2022-08-26T02:28:34.612Z,25.48
2022-08-26T02:31:02.659Z,24.76
2022-08-26T02:33:30.435Z,25.35
2022-08-26T02:35:57.559Z,24.06
2022-08-26T02:38:24.448Z,24.89
2022-08-26T02:40:51.255Z,24.63
2022-08-26T02:43:18.175Z,25.53
2022-08-26T02:45:50.817Z,25.37
2022-08-26T02:48:21.276Z,25.22
2022-08-26T02:50:49.157Z,26.18
2022-08-26T02:53:16.861Z,25.04
2022-08-26T02:55:51.379Z,25.29
2022-08-26T02:58:18.335Z,25.59
2022-08-26T03:00:53.435Z,25.08
2022-08-26T03:03:23.564Z,24.32
2022-08-26T03:05:54.073Z,24.51
2022-08-26T03:08:21.110Z,24.77
2022-08-26T03:10:48.366Z,24.76
2022-08-26T03:13:16.784Z,24.53
2022-08-26T03:15:44.277Z,24.56
2022-08-26T03:18:13.515Z,24.25
2022-08-26T03:20:40.611Z,24.43
2022-08-26T03:23:07.853Z,24.69
2022-08-26T03:25:36.047Z,24.32
2022-08-26T03:28:03.746Z,23.97
2022-08-26T03:30:45.142Z,24.76
2022-08-26T03:33:14.250Z,23.14
2022-08-26T03:35:43.600Z,23.65
2022-08-26T03:38:11.114Z,24.71
2022-08-26T03:40:38.762Z,24.40
2022-08-26T03:43:09.701Z,24.08
2022-08-26T03:45:37.844Z,23.56
2022-08-26T03:48:05.593Z,24.16
2022-08-26T03:50:34.317Z,23.84
2022-08-26T03:53:03.891Z,23.39
2022-08-26T03:55:32.810Z,23.73
2022-08-26T03:58:01.143Z,24.46
2022-08-26T04:00:28.959Z,23.24
2022-08-26T04:02:56.301Z,23.32
2022-08-26T04:05:23.368Z,23.94
2022-08-26T04:07:51.436Z,22.99
2022-08-26T04:10:28.962Z,23.72
2022-08-26T04:12:58.988Z,24.14
2022-08-26T04:15:26.995Z,24.01
2022-08-26T04:17:54.020Z,24.00
2022-08-26T04:20:22.790Z,23.19
2022-08-26T04:22:50.646Z,22.92
2022-08-26T04:25:18.608Z,23.82
2022-08-26T04:27:47.386Z,22.18
2022-08-26T04:30:16.641Z,23.50
2022-08-26T04:32:43.945Z,23.88
2022-08-26T04:35:10.961Z,23.32
2022-08-26T04:37:38.191Z,24.34
2022-08-26T04:40:05.954Z,23.58
2022-08-26T04:42:33.403Z,23.35
2022-08-26T04:45:01.382Z,23.09
2022-08-26T04:47:32.631Z,23.24
2022-08-26T04:50:01.948Z,23.56
2022-08-26T04:52:29.111Z,22.58
2022-08-26T04:54:57.887Z,23.39
2022-08-26T04:57:24.661Z,23.40
2022-08-26T04:59:51.454Z,23.66
2022-08-26T05:02:18.310Z,24.38
2022-08-26T05:04:45.959Z,23.20
2022-08-26T05:07:12.950Z,23.37
2022-08-26T05:09:40.802Z,24.33
2022-08-26T05:12:08.289Z,23.85
2022-08-26T05:14:36.042Z,23.66
2022-08-26T05:17:03.224Z,23.15
2022-08-26T05:19:31.671Z,23.65
2022-08-26T05:21:59.487Z,24.21
2022-08-26T05:24:26.611Z,24.25
2022-08-26T05:26:54.147Z,23.26
2022-08-26T05:29:24.137Z,24.21
2022-08-26T05:31:52.506Z,25.40
2022-08-26T05:34:20.878Z,24.03
2022-08-26T05:36:48.164Z,23.28
2022-08-26T05:39:15.227Z,21.89
2022-08-26T05:41:43.225Z,23.80
2022-08-26T05:44:14.462Z,23.67
2022-08-26T05:46:42.090Z,24.31
2022-08-26T05:49:13.123Z,23.42
2022-08-26T05:51:41.923Z,25.10
2022-08-26T05:54:10.422Z,23.92
2022-08-26T05:56:39.137Z,24.46
2022-08-26T05:59:06.549Z,24.60
2022-08-26T06:01:43.653Z,26.09
2022-08-26T06:04:11.383Z,25.81
2022-08-26T06:06:41.590Z,26.26
2022-08-26T06:09:11.451Z,24.22
2022-08-26T06:11:39.044Z,23.69
2022-08-26T06:14:07.962Z,25.99
2022-08-26T06:16:38.670Z,26.67
2022-08-26T06:19:11.462Z,26.10
2022-08-26T06:21:40.550Z,26.30
2022-08-26T06:24:29.161Z,26.22
2022-08-26T06:26:59.078Z,24.95
2022-08-26T06:29:27.830Z,24.77
2022-08-26T06:31:56.439Z,26.98
2022-08-26T06:34:29.679Z,27.29
2022-08-26T06:36:58.666Z,26.53
2022-08-26T06:39:25.631Z,26.59
2022-08-26T06:41:52.545Z,26.79
2022-08-26T06:44:20.262Z,25.31
2022-08-26T06:46:50.546Z,25.71
2022-08-26T06:49:18.322Z,27.09
2022-08-26T06:51:53.445Z,27.31
2022-08-26T06:54:20.469Z,27.20
2022-08-26T06:56:47.944Z,26.25
2022-08-26T06:59:16.097Z,25.94
2022-08-26T07:01:46.701Z,27.69
2022-08-26T07:04:20.317Z,25.89
2022-08-26T07:06:52.684Z,27.19
2022-08-26T07:09:22.433Z,25.50
2022-08-26T07:11:49.713Z,26.50
2022-08-26T07:14:19.290Z,28.94
2022-08-26T07:16:48.490Z,27.88
2022-08-26T07:19:16.650Z,29.16
2022-08-26T07:21:44.201Z,29.95
2022-08-26T07:24:11.364Z,30.78
2022-08-26T07:26:43.095Z,29.54
2022-08-26T07:29:12.572Z,30.13
2022-08-26T07:31:42.375Z,30.74
2022-08-26T07:34:13.605Z,29.38
2022-08-26T07:36:41.502Z,28.39
2022-08-26T07:39:08.942Z,29.49
2022-08-26T07:41:36.661Z,29.98
2022-08-26T07:44:04.373Z,29.09
2022-08-26T07:46:31.653Z,30.38
2022-08-26T07:48:59.142Z,28.06
2022-08-26T07:51:27.183Z,29.60
2022-08-26T07:53:55.218Z,29.07
2022-08-26T07:56:23.396Z,29.97
2022-08-26T07:58:54.020Z,28.78
2022-08-26T08:01:23.875Z,30.45
2022-08-26T08:03:51.832Z,30.62
2022-08-26T08:06:27.422Z,30.61
2022-08-26T08:08:56.252Z,29.50
2022-08-26T08:11:23.835Z,27.15
2022-08-26T08:13:56.418Z,28.10
2022-08-26T08:16:28.540Z,28.95
2022-08-26T08:18:59.563Z,28.85
2022-08-26T08:21:28.942Z,28.66
2022-08-26T08:24:01.849Z,28.66
2022-08-26T08:26:30.594Z,30.75
2022-08-26T08:28:58.150Z,29.87
2022-08-26T08:31:55.945Z,29.89
2022-08-26T08:34:15.298Z,30.54
2022-08-26T08:36:42.299Z,31.52
2022-08-26T08:39:09.481Z,31.79
2022-08-26T08:42:04.257Z,32.41
2022-08-26T08:44:31.898Z,31.20
2022-08-26T08:47:11.845Z,30.61
2022-08-26T08:49:39.326Z,34.27
2022-08-26T08:52:25.692Z,32.63
2022-08-26T08:54:55.524Z,30.39
2022-08-26T08:57:42.182Z,29.95
2022-08-26T09:00:22.407Z,31.63
2022-08-26T09:03:10.881Z,32.39
2022-08-26T09:05:48.702Z,31.92
2022-08-26T09:08:27.472Z,32.38
2022-08-26T09:10:59.435Z,33.36
2022-08-26T09:13:27.598Z,32.10
2022-08-26T09:16:10.496Z,32.91
2022-08-26T09:19:07.773Z,33.29
2022-08-26T09:21:34.597Z,32.94
2022-08-26T09:24:01.562Z,34.17
2022-08-26T09:26:40.997Z,33.15
2022-08-26T09:32:12.970Z,30.92
2022-08-26T09:35:04.683Z,32.00
2022-08-26T09:40:27.009Z,35.63
2022-08-26T09:43:22.785Z,33.95
2022-08-26T09:46:18.094Z,35.89
2022-08-26T09:48:45.542Z,35.32
2022-08-26T09:51:24.419Z,32.09
2022-08-26T09:53:54.901Z,35.60
2022-08-26T09:56:27.717Z,34.13
2022-08-26T09:58:56.787Z,35.48
2022-08-26T10:01:23.593Z,35.91
2022-08-26T10:03:51.439Z,33.60
2022-08-26T10:06:20.990Z,32.36
2022-08-26T10:09:08.921Z,34.24
2022-08-26T10:11:45.339Z,34.85
2022-08-26T10:14:24.878Z,35.86
2022-08-26T10:16:59.639Z,36.11
2022-08-26T10:19:48.285Z,33.66
2022-08-26T10:22:37.366Z,34.10
2022-08-26T10:25:08.121Z,30.70
2022-08-26T10:27:53.703Z,33.91
2022-08-26T10:30:24.681Z,32.63
2022-08-26T10:33:10.971Z,31.59
2022-08-26T10:35:52.945Z,32.16
2022-08-26T10:38:30.485Z,32.02
2022-08-26T10:41:11.354Z,31.72
2022-08-26T10:43:46.638Z,32.40
2022-08-26T10:46:23.927Z,32.52
2022-08-26T10:49:15.502Z,31.94
2022-08-26T10:51:57.947Z,32.14
2022-08-26T10:54:39.211Z,31.51
2022-08-26T10:57:15.243Z,34.00
2022-08-26T11:00:31.291Z,34.45
2022-08-26T11:03:21.898Z,35.47
2022-08-26T11:06:18.583Z,34.94
2022-08-26T11:08:50.317Z,33.83
2022-08-26T11:11:46.753Z,35.43
2022-08-26T11:14:28.693Z,34.05
2022-08-26T11:16:58.937Z,35.76
2022-08-26T11:20:01.543Z,35.38
2022-08-26T11:22:38.106Z,34.77
2022-08-26T11:25:19.829Z,34.00
2022-08-26T11:27:52.775Z,35.28
2022-08-26T11:30:20.300Z,36.86
2022-08-26T11:32:53.407Z,35.31
2022-08-26T11:35:20.556Z,34.01
2022-08-26T11:37:51.593Z,32.13
2022-08-26T11:40:22.668Z,33.79
2022-08-26T11:42:57.309Z,32.58
2022-08-26T11:45:40.068Z,29.00
2022-08-26T11:48:22.785Z,34.64
2022-08-26T11:51:03.032Z,31.84
2022-08-26T11:53:32.715Z,34.74
2022-08-26T11:56:04.454Z,36.08
2022-08-26T11:58:32.095Z,35.78
2022-08-26T12:01:09.754Z,32.70
2022-08-26T12:03:47.226Z,34.88
2022-08-26T12:06:22.854Z,33.00
2022-08-26T12:08:50.562Z,33.22
2022-08-26T12:11:27.429Z,32.79
2022-08-26T12:14:02.176Z,32.06
2022-08-26T12:16:39.494Z,34.23
2022-08-26T12:19:27.771Z,34.29
2022-08-26T12:22:02.307Z,33.74
2022-08-26T12:24:29.657Z,30.89
2022-08-26T12:27:17.664Z,30.76
2022-08-26T12:29:48.500Z,32.53
2022-08-26T12:32:18.515Z,34.15
2022-08-26T12:34:49.081Z,32.51
2022-08-26T12:37:16.564Z,33.09
2022-08-26T12:39:45.901Z,33.95
2022-08-26T12:42:12.595Z,37.61
2022-08-26T12:44:53.862Z,32.02
2022-08-26T12:47:41.950Z,35.74
2022-08-26T12:50:22.261Z,36.84
2022-08-26T12:53:05.186Z,36.21
2022-08-26T12:55:31.933Z,35.71
2022-08-26T12:58:16.710Z,36.58
2022-08-26T13:00:46.591Z,33.83
2022-08-26T13:03:28.366Z,33.21
2022-08-26T13:06:15.588Z,31.99
2022-08-26T13:08:46.018Z,31.38
2022-08-26T13:11:20.173Z,33.66
2022-08-26T13:13:53.608Z,32.46
2022-08-26T13:16:22.061Z,36.04
2022-08-26T13:18:51.870Z,36.83
2022-08-26T13:21:25.199Z,33.48
2022-08-26T13:23:52.650Z,35.47
2022-08-26T13:26:20.442Z,34.19
2022-08-26T13:28:48.623Z,34.93
2022-08-26T13:31:31.014Z,35.90
2022-08-26T13:33:58.063Z,35.67
2022-08-26T13:36:24.885Z,35.95
2022-08-26T13:38:52.048Z,34.19
2022-08-26T13:41:29.042Z,36.22
2022-08-26T13:43:56.163Z,37.10
2022-08-26T13:46:23.099Z,34.51
2022-08-26T13:48:49.863Z,32.43
2022-08-26T13:51:18.963Z,34.66
2022-08-26T13:53:46.325Z,34.75
2022-08-26T13:56:13.414Z,35.88
2022-08-26T13:58:40.338Z,36.38
2022-08-26T14:01:08.786Z,37.20
2022-08-26T14:03:36.100Z,33.85
2022-08-26T14:06:03.165Z,36.29
2022-08-26T14:08:30.811Z,33.68
2022-08-26T14:10:58.277Z,34.69
2022-08-26T14:13:25.318Z,36.26
2022-08-26T14:15:53.231Z,35.72
2022-08-26T14:18:28.066Z,34.34
2022-08-26T14:20:55.734Z,33.71
2022-08-26T14:23:22.731Z,33.34
2022-08-26T14:25:50.116Z,33.88
2022-08-26T14:28:17.376Z,32.99
2022-08-26T14:30:49.335Z,35.25
2022-08-26T14:33:17.421Z,34.39
2022-08-26T14:35:47.940Z,30.47
2022-08-26T14:38:17.268Z,34.42
2022-08-26T14:40:45.146Z,33.63
2022-08-26T14:43:15.280Z,35.20
2022-08-26T14:45:45.643Z,35.39
2022-08-26T14:48:12.573Z,35.24
2022-08-26T14:50:39.325Z,33.25
2022-08-26T14:53:24.897Z,34.30
2022-08-26T14:55:51.682Z,36.39
2022-08-26T14:58:18.549Z,34.84
2022-08-26T15:00:45.303Z,35.27
2022-08-26T15:03:12.623Z,34.82
2022-08-26T15:05:47.970Z,33.14
2022-08-26T15:08:18.902Z,30.30
2022-08-26T15:10:46.933Z,33.38
2022-08-26T15:13:13.861Z,35.21
2022-08-26T15:15:40.698Z,35.73
2022-08-26T15:18:07.939Z,34.31
2022-08-26T15:20:34.990Z,33.13
2022-08-26T15:23:06.864Z,36.38
2022-08-26T15:25:33.967Z,35.34
2022-08-26T15:28:00.874Z,33.31
2022-08-26T15:30:27.678Z,33.81
2022-08-26T15:32:54.397Z,34.12
2022-08-26T15:35:21.250Z,35.28
2022-08-26T15:37:48.318Z,33.23
2022-08-26T15:40:15.496Z,34.95
2022-08-26T15:42:42.285Z,34.40
2022-08-26T15:45:09.566Z,34.07
2022-08-26T15:48:00.733Z,34.12
2022-08-26T15:50:25.427Z,34.50
2022-08-26T15:52:52.267Z,32.79
2022-08-26T15:55:19.093Z,33.93
2022-08-26T15:57:49.347Z,32.78
2022-08-26T16:00:17.256Z,32.92
2022-08-26T16:02:44.382Z,34.75
2022-08-26T16:05:11.179Z,34.62
2022-08-26T16:07:37.992Z,31.39
2022-08-26T16:10:05.377Z,33.72
2022-08-26T16:12:32.464Z,34.31
2022-08-26T16:14:59.506Z,31.13
2022-08-26T16:17:26.276Z,33.17
2022-08-26T16:19:53.031Z,34.42
2022-08-26T16:22:20.093Z,33.49
2022-08-26T16:24:49.248Z,31.69
2022-08-26T16:27:16.191Z,32.60
2022-08-26T16:29:43.114Z,32.87
2022-08-26T16:32:09.937Z,33.71
2022-08-26T16:34:36.670Z,32.62
2022-08-26T16:37:04.348Z,32.97
2022-08-26T16:39:31.274Z,32.58
2022-08-26T16:41:58.348Z,32.92
2022-08-26T16:44:28.038Z,33.42
2022-08-26T16:46:58.587Z,34.16
2022-08-26T16:49:25.618Z,32.96
2022-08-26T16:51:52.690Z,32.75
2022-08-26T16:54:19.509Z,32.67
2022-08-26T16:56:46.255Z,32.69
2022-08-26T16:59:13.554Z,32.72
2022-08-26T17:01:40.432Z,34.03
2022-08-26T17:04:07.535Z,32.27
2022-08-26T17:06:34.577Z,33.24
2022-08-26T17:09:01.452Z,32.34
2022-08-26T17:11:28.490Z,31.47
2022-08-26T17:13:55.320Z,32.53
2022-08-26T17:16:26.701Z,31.37
2022-08-26T17:18:56.156Z,32.65
2022-08-26T17:21:24.061Z,31.98
2022-08-26T17:23:51.847Z,31.74
2022-08-26T17:26:18.606Z,32.23
2022-08-26T17:28:45.463Z,32.08
2022-08-26T17:31:13.229Z,32.71
2022-08-26T17:33:41.197Z,32.38
2022-08-26T17:36:09.545Z,31.72
2022-08-26T17:38:38.008Z,32.88
2022-08-26T17:41:12.940Z,31.42
2022-08-26T17:43:40.210Z,31.81
2022-08-26T17:46:09.576Z,30.49
2022-08-26T17:48:38.243Z,29.43
2022-08-26T17:51:11.142Z,30.61
2022-08-26T17:53:38.697Z,30.39
2022-08-26T17:56:16.395Z,30.02
2022-08-26T17:58:51.417Z,30.90
2022-08-26T18:01:20.588Z,29.73
2022-08-26T18:03:47.941Z,30.67
2022-08-26T18:06:15.290Z,30.41
2022-08-26T18:08:42.575Z,29.68
2022-08-26T18:11:11.439Z,31.07
2022-08-26T18:13:38.982Z,30.71
2022-08-26T18:16:14.632Z,30.38
2022-08-26T18:18:42.280Z,29.91
2022-08-26T18:21:18.083Z,30.62
2022-08-26T18:23:46.611Z,30.40
2022-08-26T18:26:31.963Z,29.95
2022-08-26T18:28:59.681Z,29.37
2022-08-26T18:31:27.142Z,29.99
2022-08-26T18:33:54.282Z,30.52
2022-08-26T18:36:29.966Z,30.73
2022-08-26T18:38:57.522Z,29.79
2022-08-26T18:41:27.480Z,30.90
2022-08-26T18:43:54.866Z,30.97
2022-08-26T18:46:25.172Z,30.32
2022-08-26T18:48:55.190Z,30.65
2022-08-26T18:51:33.280Z,29.34
2022-08-26T18:54:02.548Z,28.68
2022-08-26T18:56:30.603Z,29.11
2022-08-26T18:58:59.020Z,29.80
2022-08-26T19:01:27.887Z,29.37
2022-08-26T19:04:00.034Z,29.50
2022-08-26T19:06:28.903Z,29.24
2022-08-26T19:08:55.830Z,30.10
2022-08-26T19:11:31.538Z,26.62
2022-08-26T19:13:58.865Z,28.92
2022-08-26T19:16:27.758Z,29.49
2022-08-26T19:18:55.839Z,28.31
2022-08-26T19:21:23.507Z,27.65
2022-08-26T19:23:50.859Z,29.32
2022-08-26T19:26:18.541Z,29.23
2022-08-26T19:28:46.018Z,29.09
2022-08-26T19:31:13.065Z,28.72
2022-08-26T19:33:43.121Z,27.56
2022-08-26T19:36:16.267Z,29.19
2022-08-26T19:38:45.241Z,27.88
2022-08-26T19:41:15.200Z,27.81
2022-08-26T19:43:42.943Z,26.97
2022-08-26T19:46:13.409Z,25.41
2022-08-26T19:48:44.391Z,26.57
2022-08-26T19:51:20.902Z,24.62
2022-08-26T19:53:49.331Z,25.15
2022-08-26T19:56:16.846Z,24.13
2022-08-26T19:58:44.613Z,24.13
2022-08-26T20:01:12.496Z,22.85
2022-08-26T20:03:41.321Z,25.17
2022-08-26T20:06:10.911Z,24.53
2022-08-26T20:08:39.835Z,23.41
2022-08-26T20:11:11.167Z,23.30
2022-08-26T20:13:40.191Z,23.41
2022-08-26T20:16:08.236Z,20.41
2022-08-26T20:18:54.012Z,20.33
2022-08-26T20:21:27.154Z,23.42
2022-08-26T20:23:59.095Z,22.64
2022-08-26T20:26:28.301Z,20.66
2022-08-26T20:28:55.896Z,22.96
2022-08-26T20:31:24.274Z,23.72
2022-08-26T20:33:51.911Z,21.78
2022-08-26T20:36:21.201Z,24.89
2022-08-26T20:38:49.723Z,23.54
2022-08-26T20:41:18.667Z,23.01
2022-08-26T20:43:47.130Z,24.60
2022-08-26T20:46:18.035Z,23.28
2022-08-26T20:48:49.979Z,22.40
2022-08-26T20:51:18.053Z,24.60
2022-08-26T20:53:45.446Z,22.84
2022-08-26T20:56:14.396Z,24.47
2022-08-26T20:58:42.029Z,24.53
2022-08-26T21:01:16.954Z,25.78
2022-08-26T21:03:43.808Z,24.37
2022-08-26T21:06:10.639Z,24.05
2022-08-26T21:08:42.519Z,23.87
2022-08-26T21:11:11.614Z,24.67
2022-08-26T21:13:48.572Z,23.42
2022-08-26T21:16:26.363Z,23.15
2022-08-26T21:18:53.184Z,24.11
2022-08-26T21:21:25.205Z,24.39
2022-08-26T21:23:52.318Z,23.03
2022-08-26T21:26:19.275Z,24.27
2022-08-26T21:28:46.429Z,24.00
2022-08-26T21:31:16.972Z,23.87
2022-08-26T21:33:44.537Z,24.49
2022-08-26T21:36:13.158Z,24.82
2022-08-26T21:38:41.124Z,25.19
2022-08-26T21:41:19.895Z,26.33
2022-08-26T21:43:48.601Z,24.56
2022-08-26T21:46:18.920Z,25.14
2022-08-26T21:49:07.945Z,25.25
2022-08-26T21:51:41.838Z,25.22
2022-08-26T21:54:11.385Z,25.63
2022-08-26T21:56:44.149Z,25.71
2022-08-26T21:59:11.254Z,25.25
2022-08-26T22:01:38.271Z,23.20
2022-08-26T22:04:07.157Z,26.29
2022-08-26T22:06:39.223Z,25.60
2022-08-26T22:09:06.085Z,25.75
2022-08-26T22:11:32.882Z,24.73
2022-08-26T22:13:59.672Z,24.63
2022-08-26T22:16:28.768Z,25.55
2022-08-26T22:18:55.742Z,25.25
2022-08-26T22:21:24.546Z,23.62
2022-08-26T22:23:51.923Z,22.20
2022-08-26T22:26:27.298Z,23.54
2022-08-26T22:28:55.619Z,24.84
2022-08-26T22:31:29.063Z,25.37
2022-08-26T22:34:11.791Z,25.69
2022-08-26T22:36:43.648Z,25.95
2022-08-26T22:39:13.829Z,26.09
2022-08-26T22:41:42.099Z,25.81
2022-08-26T22:44:10.667Z,26.29
2022-08-26T22:46:38.650Z,26.57
2022-08-26T22:49:07.567Z,25.16
2022-08-26T22:51:34.636Z,25.02
2022-08-26T22:54:01.630Z,24.52
2022-08-26T22:56:28.426Z,23.97
2022-08-26T22:58:55.174Z,24.72
2022-08-26T23:01:22.229Z,25.05
2022-08-26T23:03:49.157Z,26.12
2022-08-26T23:06:15.986Z,26.56
2022-08-26T23:08:45.283Z,25.29
2022-08-26T23:11:13.654Z,25.19
2022-08-26T23:13:41.085Z,26.18
2022-08-26T23:16:11.113Z,26.34
2022-08-26T23:18:40.037Z,25.99
2022-08-26T23:21:07.322Z,26.00
2022-08-26T23:23:35.377Z,25.88
2022-08-26T23:26:05.951Z,26.13
2022-08-26T23:28:34.101Z,25.82
2022-08-26T23:31:00.883Z,25.86
2022-08-26T23:33:47.631Z,26.66
2022-08-26T23:36:17.988Z,25.70
2022-08-26T23:38:52.354Z,24.78
2022-08-26T23:41:22.450Z,22.16
2022-08-26T23:43:50.020Z,23.04
2022-08-26T23:46:17.765Z,24.35
2022-08-26T23:48:45.023Z,22.80
2022-08-26T23:51:30.646Z,24.57
2022-08-26T23:53:57.992Z,24.51
2022-08-26T23:56:25.570Z,24.35
2022-08-26T23:58:54.017Z,25.02
